Terminal Aerodrome Forecast
Issued by NWS

Home | Current Version | Previous Version | Graphics & Text | Print | Product List | Glossary On
Versions: 1 2 3 4 5 6 7 8 9 10 11 12 13 14 15 16
206
FTUS41 KCLE 221134
TAFFDY
TAF
KFDY 221134Z 2212/2312 20008KT P6SM SCT080 BKN150
     FM221700 22014G22KT P6SM SCT040 BKN150
     FM230100 23010KT P6SM SCT040 BKN080
     FM230600 20013KT P6SM BKN024
     FM230800 22014G24KT P6SM -SHRA BKN010 OVC020=

USA.gov is the U.S. government's official web portal to all federal, state and local government web resources and services.